createdAt,value
2023-05-08T00:01:47.118Z,17.23
2023-05-08T00:04:14.713Z,13.10
2023-05-08T00:06:42.184Z,12.88
2023-05-08T00:09:09.767Z,13.85
2023-05-08T00:11:36.950Z,13.73
2023-05-08T00:14:04.243Z,13.35
2023-05-08T00:16:32.697Z,13.50
2023-05-08T00:19:00.804Z,13.77
2023-05-08T00:21:28.102Z,15.30
2023-05-08T00:23:55.492Z,13.55
2023-05-08T00:26:22.805Z,15.52
2023-05-08T00:28:49.983Z,17.03
2023-05-08T00:31:17.185Z,14.45
2023-05-08T00:33:46.526Z,15.43
2023-05-08T00:36:15.792Z,14.43
2023-05-08T00:38:43.069Z,13.35
2023-05-08T00:41:12.453Z,15.37
2023-05-08T00:43:40.387Z,15.38
2023-05-08T00:46:09.916Z,14.95
2023-05-08T00:48:37.438Z,14.73
2023-05-08T00:51:06.090Z,13.43
2023-05-08T00:53:34.444Z,13.83
2023-05-08T00:56:01.694Z,15.45
2023-05-08T00:58:29.331Z,15.10
2023-05-08T01:00:57.494Z,15.32
2023-05-08T01:03:25.655Z,14.10
2023-05-08T01:05:52.913Z,14.37
2023-05-08T01:08:20.283Z,15.32
2023-05-08T01:10:47.866Z,14.13
2023-05-08T01:13:18.306Z,13.95
2023-05-08T01:15:49.974Z,15.18
2023-05-08T01:18:20.805Z,15.03
2023-05-08T01:21:01.300Z,13.38
2023-05-08T01:23:36.517Z,16.20
2023-05-08T01:26:22.672Z,15.80
2023-05-08T01:28:56.051Z,16.67
2023-05-08T01:31:23.414Z,15.40
2023-05-08T01:33:57.073Z,15.55
2023-05-08T01:36:31.459Z,15.20
2023-05-08T01:39:05.388Z,17.58
2023-05-08T01:41:34.342Z,16.38
2023-05-08T01:44:16.480Z,16.70
2023-05-08T01:46:46.097Z,16.08
2023-05-08T01:49:18.369Z,16.25
2023-05-08T01:51:53.745Z,14.73
2023-05-08T01:54:22.781Z,17.05
2023-05-08T01:56:51.206Z,15.10
2023-05-08T01:59:20.928Z,17.20
2023-05-08T02:01:49.115Z,15.65
2023-05-08T02:04:17.333Z,16.02
2023-05-08T02:06:44.761Z,16.27
2023-05-08T02:09:12.830Z,19.67
2023-05-08T02:11:42.003Z,15.27
2023-05-08T02:14:09.627Z,14.90
2023-05-08T02:16:39.069Z,16.85
2023-05-08T02:19:08.163Z,15.55
2023-05-08T02:21:36.304Z,14.87
2023-05-08T02:24:03.811Z,16.38
2023-05-08T02:26:32.283Z,15.40
2023-05-08T02:28:59.706Z,15.80
2023-05-08T02:31:27.222Z,17.35
2023-05-08T02:33:54.708Z,14.33
2023-05-08T02:36:22.955Z,15.02
2023-05-08T02:38:52.360Z,15.80
2023-05-08T02:41:22.435Z,13.20
2023-05-08T02:43:52.042Z,14.75
2023-05-08T02:46:19.330Z,13.83
2023-05-08T02:49:08.288Z,13.95
2023-05-08T02:51:54.386Z,14.60
2023-05-08T02:54:21.991Z,13.88
2023-05-08T02:57:09.665Z,15.73
2023-05-08T02:59:38.130Z,14.73
2023-05-08T03:02:11.675Z,14.73
2023-05-08T03:04:42.662Z,14.15
2023-05-08T03:07:09.924Z,13.93
2023-05-08T03:09:45.477Z,14.82
2023-05-08T03:12:16.804Z,16.20
2023-05-08T03:14:47.661Z,14.80
2023-05-08T03:17:16.267Z,15.32
2023-05-08T03:19:46.185Z,14.55
2023-05-08T03:22:14.327Z,16.92
2023-05-08T03:24:43.800Z,14.13
2023-05-08T03:27:11.407Z,14.68
2023-05-08T03:29:39.946Z,14.82
2023-05-08T03:32:07.949Z,14.75
2023-05-08T03:34:36.323Z,19.90
2023-05-08T03:37:03.851Z,17.37
2023-05-08T03:39:32.367Z,17.38
2023-05-08T03:42:00.125Z,17.10
2023-05-08T03:44:29.263Z,18.80
2023-05-08T03:46:58.156Z,17.30
2023-05-08T03:49:27.006Z,18.50
2023-05-08T03:51:56.074Z,31.45
2023-05-08T03:54:28.189Z,35.35
2023-05-08T03:56:55.495Z,27.63
2023-05-08T03:59:29.376Z,22.95
2023-05-08T04:02:01.947Z,35.47
2023-05-08T04:04:40.256Z,18.30
2023-05-08T04:07:22.768Z,28.63
2023-05-08T04:10:13.395Z,24.42
2023-05-08T04:12:45.938Z,25.08
2023-05-08T04:15:27.889Z,22.73
2023-05-08T04:17:58.116Z,18.52
2023-05-08T04:20:26.952Z,21.40
2023-05-08T04:22:55.302Z,23.40
2023-05-08T04:25:22.724Z,28.30
2023-05-08T04:27:55.175Z,22.43
2023-05-08T04:30:22.521Z,22.17
2023-05-08T04:32:51.374Z,20.40
2023-05-08T04:35:18.723Z,18.17
2023-05-08T04:37:46.776Z,20.88
2023-05-08T04:40:14.614Z,17.50
2023-05-08T04:42:43.776Z,16.30
2023-05-08T04:45:12.163Z,17.33
2023-05-08T04:47:39.736Z,16.92
2023-05-08T04:50:07.436Z,16.75
2023-05-08T04:52:34.806Z,16.67
2023-05-08T04:55:01.931Z,16.20
2023-05-08T04:57:30.264Z,16.83
2023-05-08T04:59:57.454Z,17.63
2023-05-08T05:02:26.753Z,18.58
2023-05-08T05:04:54.160Z,17.47
2023-05-08T05:07:21.420Z,17.13
2023-05-08T05:09:48.794Z,16.83
2023-05-08T05:12:16.366Z,19.23
2023-05-08T05:14:43.716Z,16.75
2023-05-08T05:17:11.090Z,16.40
2023-05-08T05:19:38.298Z,16.90
2023-05-08T05:22:06.512Z,16.23
2023-05-08T05:24:36.138Z,15.75
2023-05-08T05:27:04.551Z,15.50
2023-05-08T05:29:32.246Z,13.43
2023-05-08T05:31:59.678Z,16.55
2023-05-08T05:34:26.827Z,14.85
2023-05-08T05:36:54.377Z,15.13
2023-05-08T05:39:21.600Z,14.60
2023-05-08T05:41:48.804Z,15.93
2023-05-08T05:44:16.126Z,16.60
2023-05-08T05:46:44.635Z,15.48
2023-05-08T05:49:12.380Z,15.35
2023-05-08T05:51:39.551Z,16.48
2023-05-08T05:54:07.078Z,15.80
2023-05-08T05:56:34.460Z,17.33
2023-05-08T05:59:03.051Z,16.13
2023-05-08T06:01:30.441Z,17.88
2023-05-08T06:03:57.942Z,15.10
2023-05-08T06:06:25.478Z,13.87
2023-05-08T06:08:52.803Z,14.23
2023-05-08T06:11:20.132Z,16.33
2023-05-08T06:13:50.603Z,14.88
2023-05-08T06:16:19.261Z,14.68
2023-05-08T06:18:46.602Z,13.10
2023-05-08T06:21:14.209Z,15.23
2023-05-08T06:23:42.666Z,17.50
2023-05-08T06:26:10.500Z,16.45
2023-05-08T06:28:37.851Z,15.07
2023-05-08T06:31:05.269Z,16.80
2023-05-08T06:33:32.741Z,17.77
2023-05-08T06:36:00.327Z,17.67
2023-05-08T06:38:27.599Z,19.13
2023-05-08T06:40:55.452Z,18.00
2023-05-08T06:43:22.772Z,21.13
2023-05-08T06:45:50.157Z,22.90
2023-05-08T06:48:17.423Z,23.73
2023-05-08T06:50:44.748Z,20.52
2023-05-08T06:53:11.987Z,20.15
2023-05-08T06:55:39.257Z,20.97
2023-05-08T06:58:06.704Z,21.52
2023-05-08T07:00:34.108Z,24.15
2023-05-08T07:03:01.357Z,21.63
2023-05-08T07:05:28.849Z,22.52
2023-05-08T07:07:56.454Z,22.60
2023-05-08T07:10:23.662Z,22.58
2023-05-08T07:12:51.327Z,23.73
2023-05-08T07:15:26.111Z,23.67
2023-05-08T07:17:54.247Z,24.02
2023-05-08T07:20:21.986Z,25.03
2023-05-08T07:22:49.805Z,24.58
2023-05-08T07:25:17.353Z,24.70
2023-05-08T07:27:44.762Z,25.83
2023-05-08T07:30:12.263Z,24.48
2023-05-08T07:32:39.899Z,25.40
2023-05-08T07:35:10.952Z,30.27
2023-05-08T07:37:39.313Z,31.60
2023-05-08T07:40:06.898Z,28.95
2023-05-08T07:42:39.701Z,26.77
2023-05-08T07:45:07.578Z,28.67
2023-05-08T07:47:35.200Z,29.08
2023-05-08T07:50:02.893Z,28.95
2023-05-08T07:52:31.276Z,29.25
2023-05-08T07:54:58.821Z,31.88
2023-05-08T07:57:26.275Z,35.10
2023-05-08T07:59:53.578Z,36.13
2023-05-08T08:02:21.014Z,36.65
2023-05-08T08:04:48.937Z,41.08
2023-05-08T08:07:16.359Z,39.83
2023-05-08T08:09:43.721Z,42.43
2023-05-08T08:12:11.577Z,37.20
2023-05-08T08:14:38.927Z,45.25
2023-05-08T08:17:06.523Z,41.15
2023-05-08T08:19:33.914Z,45.35
2023-05-08T08:22:01.404Z,43.87
2023-05-08T08:24:29.346Z,44.25
2023-05-08T08:26:56.704Z,42.85
2023-05-08T08:29:25.537Z,46.88
2023-05-08T08:31:52.723Z,45.65
2023-05-08T08:34:19.881Z,45.97
2023-05-08T08:36:47.332Z,48.65
2023-05-08T08:39:15.574Z,45.60
2023-05-08T08:41:42.986Z,46.45
2023-05-08T08:44:12.969Z,47.60
2023-05-08T08:46:47.659Z,47.37
2023-05-08T08:49:18.488Z,47.88
2023-05-08T08:51:53.722Z,50.72
2023-05-08T08:54:31.658Z,52.75
2023-05-08T08:57:01.973Z,51.67
2023-05-08T08:59:30.198Z,52.73
2023-05-08T09:01:59.742Z,53.60
2023-05-08T09:04:27.566Z,55.17
2023-05-08T09:06:55.176Z,51.75
2023-05-08T09:09:23.298Z,59.55
2023-05-08T09:11:52.563Z,54.23
2023-05-08T09:14:19.775Z,55.25
2023-05-08T09:16:47.381Z,54.72
2023-05-08T09:19:16.645Z,58.50
2023-05-08T09:21:44.316Z,55.20
2023-05-08T09:24:11.980Z,56.33
2023-05-08T09:26:40.562Z,54.72
2023-05-08T09:29:11.730Z,56.15
2023-05-08T09:31:42.637Z,55.10
2023-05-08T09:34:10.830Z,56.33
2023-05-08T09:36:40.801Z,53.43
2023-05-08T09:39:12.519Z,52.47
2023-05-08T09:41:40.811Z,54.03
2023-05-08T09:44:08.039Z,51.83
2023-05-08T09:46:35.506Z,54.00
2023-05-08T09:49:04.678Z,55.53
2023-05-08T09:51:32.695Z,50.42
2023-05-08T09:54:00.628Z,54.15
2023-05-08T09:56:31.009Z,57.78
2023-05-08T09:58:58.552Z,54.65
2023-05-08T10:01:30.415Z,55.00
2023-05-08T10:04:00.486Z,54.95
2023-05-08T10:06:30.282Z,53.72
2023-05-08T10:09:14.214Z,54.90
2023-05-08T10:11:42.018Z,55.60
2023-05-08T10:14:10.320Z,55.43
2023-05-08T10:16:43.232Z,56.35
2023-05-08T10:19:15.186Z,56.67
2023-05-08T10:21:45.564Z,55.58
2023-05-08T10:24:15.582Z,58.20
2023-05-08T10:26:57.128Z,58.23
2023-05-08T10:29:38.425Z,57.67
2023-05-08T10:32:06.944Z,54.58
2023-05-08T10:34:34.917Z,54.58
2023-05-08T10:37:02.543Z,56.47
2023-05-08T10:39:30.095Z,60.27
2023-05-08T10:41:57.606Z,59.25
2023-05-08T10:44:26.903Z,59.33
2023-05-08T10:47:08.053Z,59.00
2023-05-08T10:49:38.377Z,61.00
2023-05-08T10:52:13.346Z,59.97
2023-05-08T10:55:10.377Z,58.83
2023-05-08T10:57:37.918Z,58.75
2023-05-08T11:00:05.679Z,60.95
2023-05-08T11:02:37.128Z,57.45
2023-05-08T11:05:20.471Z,62.97
2023-05-08T11:08:10.816Z,62.63
2023-05-08T11:10:41.024Z,58.00
2023-05-08T11:13:09.522Z,61.40
2023-05-08T11:15:37.924Z,59.03
2023-05-08T11:18:06.846Z,56.40
2023-05-08T11:20:41.182Z,56.10
2023-05-08T11:23:24.971Z,53.63
2023-05-08T11:26:01.778Z,57.63
2023-05-08T11:28:33.247Z,51.78
2023-05-08T11:31:07.923Z,48.23
2023-05-08T11:33:40.976Z,48.10
2023-05-08T11:36:08.643Z,47.72
2023-05-08T11:38:39.297Z,45.55
2023-05-08T11:41:08.078Z,47.78
2023-05-08T11:43:38.246Z,45.53
2023-05-08T11:46:06.934Z,47.40
2023-05-08T11:48:34.479Z,45.00
2023-05-08T11:51:02.035Z,42.17
2023-05-08T11:53:33.118Z,45.28
2023-05-08T11:56:00.920Z,47.30
2023-05-08T11:58:28.446Z,43.38
2023-05-08T12:00:56.273Z,39.80
2023-05-08T12:03:25.844Z,40.30
2023-05-08T12:05:56.414Z,42.67
2023-05-08T12:08:23.843Z,38.67
2023-05-08T12:10:54.277Z,39.45
2023-05-08T12:13:28.896Z,39.58
2023-05-08T12:15:57.515Z,41.00
2023-05-08T12:18:26.115Z,41.72
2023-05-08T12:20:54.241Z,38.70
2023-05-08T12:23:21.703Z,38.97
2023-05-08T12:25:55.123Z,39.20
2023-05-08T12:28:23.117Z,39.80
2023-05-08T12:30:51.064Z,38.42
2023-05-08T12:33:19.653Z,37.70
2023-05-08T12:35:47.266Z,36.28
2023-05-08T12:38:14.467Z,39.50
2023-05-08T12:40:43.035Z,39.83
2023-05-08T12:43:10.628Z,38.83
2023-05-08T12:45:39.611Z,38.50
2023-05-08T12:48:12.313Z,38.15
2023-05-08T12:50:43.679Z,34.97
2023-05-08T12:53:12.157Z,35.65
2023-05-08T12:55:40.351Z,32.83
2023-05-08T12:58:11.956Z,34.47
2023-05-08T13:00:43.043Z,32.63
2023-05-08T13:03:11.097Z,39.30
2023-05-08T13:05:42.245Z,35.75
2023-05-08T13:08:10.981Z,34.45
2023-05-08T13:10:54.571Z,33.90
2023-05-08T13:13:22.945Z,32.00
2023-05-08T13:15:51.079Z,32.60
2023-05-08T13:18:18.719Z,36.88
2023-05-08T13:20:46.847Z,30.85
2023-05-08T13:23:14.599Z,30.33
2023-05-08T13:25:41.994Z,30.42
2023-05-08T13:28:09.784Z,30.35
2023-05-08T13:30:37.704Z,29.75
2023-05-08T13:33:05.808Z,29.98
2023-05-08T13:35:34.183Z,28.57
2023-05-08T13:38:01.695Z,29.48
2023-05-08T13:40:29.076Z,30.35
2023-05-08T13:42:59.298Z,27.98
2023-05-08T13:45:27.220Z,30.10
2023-05-08T13:47:55.129Z,28.73
2023-05-08T13:50:22.565Z,28.70
2023-05-08T13:52:52.196Z,29.23
2023-05-08T13:55:23.441Z,31.02
2023-05-08T13:57:51.258Z,32.25
2023-05-08T14:00:18.998Z,31.67
2023-05-08T14:02:48.867Z,30.15
2023-05-08T14:05:17.643Z,31.63
2023-05-08T14:07:45.922Z,32.28
2023-05-08T14:10:13.187Z,35.22
2023-05-08T14:12:40.605Z,31.40
2023-05-08T14:15:08.303Z,32.72
2023-05-08T14:17:35.768Z,31.98
2023-05-08T14:20:02.988Z,31.13
2023-05-08T14:22:30.399Z,32.92
2023-05-08T14:24:57.683Z,31.30
2023-05-08T14:27:25.056Z,32.78
2023-05-08T14:29:54.280Z,31.55
2023-05-08T14:32:21.569Z,32.33
2023-05-08T14:34:49.082Z,32.38
2023-05-08T14:37:18.297Z,32.03
2023-05-08T14:39:45.868Z,31.45
2023-05-08T14:42:22.820Z,31.45
2023-05-08T14:44:51.460Z,28.30
2023-05-08T14:47:19.002Z,30.38
2023-05-08T14:49:47.026Z,30.67
2023-05-08T14:52:14.438Z,31.30
2023-05-08T14:54:42.125Z,30.88
2023-05-08T14:57:09.502Z,30.50
2023-05-08T14:59:37.088Z,29.00
2023-05-08T15:02:05.871Z,30.30
2023-05-08T15:04:33.636Z,29.27
2023-05-08T15:07:00.885Z,29.52
2023-05-08T15:09:28.141Z,30.48
2023-05-08T15:11:55.523Z,31.85
2023-05-08T15:14:22.819Z,33.60
2023-05-08T15:16:50.227Z,32.53
2023-05-08T15:19:17.560Z,31.42
2023-05-08T15:21:44.915Z,30.73
2023-05-08T15:24:12.358Z,32.13
2023-05-08T15:26:39.612Z,31.13
2023-05-08T15:29:06.883Z,32.60
2023-05-08T15:31:34.132Z,32.85
2023-05-08T15:34:01.367Z,35.08
2023-05-08T15:36:29.583Z,34.88
2023-05-08T15:38:56.989Z,34.93
2023-05-08T15:41:24.290Z,38.85
2023-05-08T15:43:51.584Z,37.40
2023-05-08T15:46:18.995Z,38.70
2023-05-08T15:48:47.563Z,42.47
2023-05-08T15:51:15.273Z,41.60
2023-05-08T15:53:43.563Z,41.58
2023-05-08T15:56:11.119Z,53.67
2023-05-08T15:58:39.046Z,58.58
2023-05-08T16:01:06.571Z,65.07
2023-05-08T16:03:34.319Z,69.73
2023-05-08T16:06:01.713Z,66.53
2023-05-08T16:08:30.823Z,63.60
2023-05-08T16:10:58.152Z,66.72
2023-05-08T16:13:25.645Z,70.47
2023-05-08T16:15:53.071Z,70.40
2023-05-08T16:18:20.691Z,77.50
2023-05-08T16:20:48.208Z,74.63
2023-05-08T16:23:15.505Z,76.65
2023-05-08T16:25:43.467Z,73.40
2023-05-08T16:28:11.864Z,71.73
2023-05-08T16:30:39.180Z,72.32
2023-05-08T16:33:06.649Z,72.45
2023-05-08T16:35:34.543Z,63.92
2023-05-08T16:38:03.490Z,66.78
2023-05-08T16:40:31.754Z,62.17
2023-05-08T16:42:58.979Z,60.45
2023-05-08T16:45:28.460Z,57.28
2023-05-08T16:47:55.910Z,57.25
2023-05-08T16:50:23.363Z,53.72
2023-05-08T16:52:50.637Z,55.87
2023-05-08T16:55:17.842Z,45.20
2023-05-08T16:57:45.066Z,48.95
2023-05-08T17:00:12.501Z,43.53
2023-05-08T17:02:39.696Z,43.35
2023-05-08T17:05:07.191Z,44.63
2023-05-08T17:07:34.491Z,45.35
2023-05-08T17:10:01.747Z,45.45
2023-05-08T17:12:29.114Z,46.47
2023-05-08T17:14:57.786Z,40.70
2023-05-08T17:17:26.408Z,41.77
2023-05-08T17:19:53.598Z,47.72
2023-05-08T17:22:21.802Z,36.85
2023-05-08T17:24:50.474Z,40.95
2023-05-08T17:27:18.954Z,35.33
2023-05-08T17:29:46.486Z,31.57
2023-05-08T17:32:14.039Z,32.63
2023-05-08T17:34:42.880Z,29.92
2023-05-08T17:37:12.402Z,31.08
2023-05-08T17:39:39.788Z,32.47
2023-05-08T17:42:09.776Z,31.33
2023-05-08T17:44:37.080Z,32.17
2023-05-08T17:47:04.422Z,30.38
2023-05-08T17:49:32.299Z,29.63
2023-05-08T17:51:59.701Z,31.58
2023-05-08T17:54:27.056Z,31.77
2023-05-08T17:56:54.160Z,34.13
2023-05-08T17:59:21.504Z,30.70
2023-05-08T18:01:48.726Z,28.73
2023-05-08T18:04:16.458Z,26.08
2023-05-08T18:06:47.401Z,27.47
2023-05-08T18:09:14.618Z,28.50
2023-05-08T18:11:41.978Z,30.10
2023-05-08T18:14:09.253Z,29.02
2023-05-08T18:16:36.703Z,28.20
2023-05-08T18:19:04.230Z,27.73
2023-05-08T18:21:31.773Z,26.48
2023-05-08T18:23:59.280Z,26.20
2023-05-08T18:26:26.640Z,26.77
2023-05-08T18:28:53.928Z,28.98
2023-05-08T18:31:21.584Z,28.70
2023-05-08T18:33:48.976Z,28.38
2023-05-08T18:36:16.477Z,33.50
2023-05-08T18:38:43.829Z,28.65
2023-05-08T18:41:11.193Z,29.65
2023-05-08T18:43:38.579Z,29.63
2023-05-08T18:46:12.902Z,29.52
2023-05-08T18:48:40.725Z,29.65
2023-05-08T18:51:07.942Z,27.83
2023-05-08T18:53:38.515Z,29.08
2023-05-08T18:56:06.414Z,31.23
2023-05-08T18:58:34.743Z,30.67
2023-05-08T19:01:04.204Z,28.25
2023-05-08T19:03:33.154Z,27.63
2023-05-08T19:06:00.528Z,26.70
2023-05-08T19:08:27.743Z,28.60
2023-05-08T19:10:56.453Z,29.48
2023-05-08T19:13:23.989Z,29.33
2023-05-08T19:15:51.525Z,28.02
2023-05-08T19:18:18.872Z,30.50
2023-05-08T19:20:47.325Z,29.43
2023-05-08T19:23:14.516Z,30.05
2023-05-08T19:25:41.755Z,28.45
2023-05-08T19:28:09.119Z,31.50
2023-05-08T19:30:36.682Z,28.83
2023-05-08T19:33:04.071Z,31.33
2023-05-08T19:35:31.653Z,31.35
2023-05-08T19:37:58.965Z,29.80
2023-05-08T19:40:26.116Z,28.20
2023-05-08T19:42:56.443Z,31.98
2023-05-08T19:45:24.290Z,30.43
2023-05-08T19:47:51.519Z,30.35
2023-05-08T19:50:19.056Z,29.48
2023-05-08T19:52:47.923Z,31.75
2023-05-08T19:55:16.051Z,33.72
2023-05-08T19:57:45.647Z,31.90
2023-05-08T20:00:14.342Z,33.33
2023-05-08T20:02:41.932Z,32.60
2023-05-08T20:07:41.132Z,34.17
2023-05-08T20:10:08.670Z,38.23
2023-05-08T20:12:35.992Z,37.15
2023-05-08T20:15:04.279Z,37.10
2023-05-08T20:17:31.566Z,33.58
2023-05-08T20:19:58.910Z,39.47
2023-05-08T20:22:26.164Z,40.90
2023-05-08T20:24:53.434Z,36.92
2023-05-08T20:27:21.662Z,38.20
2023-05-08T20:29:48.924Z,37.03
2023-05-08T20:32:19.021Z,39.50
2023-05-08T20:34:46.623Z,39.10
2023-05-08T20:37:16.157Z,36.88
2023-05-08T20:39:45.906Z,37.70
2023-05-08T20:42:13.283Z,41.40
2023-05-08T20:44:40.723Z,39.20
2023-05-08T20:47:07.919Z,37.80
2023-05-08T20:49:35.198Z,37.88
2023-05-08T20:52:02.395Z,41.13
2023-05-08T20:54:30.227Z,37.63
2023-05-08T20:56:58.061Z,40.67
2023-05-08T20:59:25.415Z,42.10
2023-05-08T21:01:52.766Z,37.55
2023-05-08T21:04:22.776Z,34.95
2023-05-08T21:06:57.452Z,35.80
2023-05-08T21:09:24.584Z,36.78
2023-05-08T21:11:52.076Z,40.30
2023-05-08T21:14:19.283Z,37.40
2023-05-08T21:16:46.539Z,37.30
2023-05-08T21:19:17.318Z,39.45
2023-05-08T21:21:45.456Z,38.63
2023-05-08T21:24:12.924Z,37.43
2023-05-08T21:26:40.538Z,40.45
2023-05-08T21:29:10.814Z,35.47
2023-05-08T21:31:38.091Z,36.72
2023-05-08T21:34:07.325Z,39.70
2023-05-08T21:36:35.324Z,35.93
2023-05-08T21:39:04.439Z,39.40
2023-05-08T21:41:33.194Z,39.90
2023-05-08T21:44:01.898Z,40.50
2023-05-08T21:46:29.381Z,36.58
2023-05-08T21:48:56.820Z,38.70
2023-05-08T21:51:24.200Z,39.97
2023-05-08T21:53:51.699Z,39.65
2023-05-08T21:56:19.339Z,41.45
2023-05-08T21:58:46.635Z,39.65
2023-05-08T22:01:13.800Z,39.53
2023-05-08T22:03:41.103Z,39.88
2023-05-08T22:06:08.301Z,43.85
2023-05-08T22:08:35.626Z,42.38
2023-05-08T22:11:03.991Z,39.30
2023-05-08T22:13:31.357Z,41.57
2023-05-08T22:15:58.766Z,42.00
2023-05-08T22:18:26.020Z,42.85
2023-05-08T22:20:55.202Z,41.90
2023-05-08T22:23:22.352Z,44.33
2023-05-08T22:25:49.698Z,43.70
2023-05-08T22:28:19.386Z,42.08
2023-05-08T22:30:46.514Z,41.90
2023-05-08T22:33:14.024Z,43.00
2023-05-08T22:35:41.906Z,43.45
2023-05-08T22:38:10.167Z,39.90
2023-05-08T22:40:39.240Z,42.05
2023-05-08T22:43:06.739Z,44.17
2023-05-08T22:45:34.121Z,41.72
2023-05-08T22:48:01.565Z,42.65
2023-05-08T22:50:28.783Z,41.60
2023-05-08T22:52:56.058Z,43.55
2023-05-08T22:55:23.239Z,45.08
2023-05-08T22:57:50.506Z,46.95
2023-05-08T23:00:17.930Z,41.40
2023-05-08T23:02:45.640Z,41.67
2023-05-08T23:05:13.287Z,43.80
2023-05-08T23:07:40.868Z,43.70
2023-05-08T23:10:08.402Z,41.47
2023-05-08T23:12:37.013Z,43.40
2023-05-08T23:15:04.857Z,42.10
2023-05-08T23:17:32.216Z,45.28
2023-05-08T23:19:59.591Z,41.60
2023-05-08T23:22:28.975Z,43.53
2023-05-08T23:24:56.288Z,43.63
2023-05-08T23:27:23.449Z,46.67
2023-05-08T23:29:50.788Z,46.88
2023-05-08T23:32:17.945Z,47.08
2023-05-08T23:34:45.928Z,49.95
2023-05-08T23:37:13.228Z,50.63
2023-05-08T23:39:41.441Z,46.70
2023-05-08T23:42:09.388Z,47.08
2023-05-08T23:44:36.915Z,46.20
2023-05-08T23:47:04.676Z,48.40
2023-05-08T23:49:32.019Z,49.50
2023-05-08T23:52:00.375Z,42.43
2023-05-08T23:54:30.139Z,49.75
2023-05-08T23:56:57.491Z,46.25
2023-05-08T23:59:24.821Z,49.10
